Time;durP1;ratioP1;P1;durP2;ratioP2;P2;SDS_P1;SDS_P2;PMS_P1;PMS_P2;Temp;Humidity;BMP_temperature;BMP_pressure;BME280_temperature;BME280_humidity;BME280_pressure;Samples;Min_cycle;Max_cycle;Signal;HPM_P1;HPM_P2
2022/12/04 00:01:03;;;;;;;40.65;18.50;;;1.50;99.90;;;;;;5040550;28;20044;-73
2022/12/04 00:03:28;;;;;;;37.97;18.48;;;1.50;99.90;;;;;;5064163;28;20057;-73
2022/12/04 00:06:08;;;;;;;36.15;17.70;;;1.50;99.90;;;;;;5055454;28;20036;-73
2022/12/04 00:08:34;;;;;;;39.33;19.63;;;1.50;99.90;;;;;;5073520;28;20126;-73
2022/12/04 00:11:02;;;;;;;41.88;18.23;;;1.50;99.90;;;;;;5056548;28;20040;-73
2022/12/04 00:13:27;;;;;;;36.08;18.77;;;1.50;99.90;;;;;;5069436;28;20052;-73
2022/12/04 00:15:53;;;;;;;33.70;18.02;;;1.40;99.90;;;;;;5073358;28;20424;-73
2022/12/04 00:18:19;;;;;;;39.33;19.60;;;1.50;99.90;;;;;;5056913;28;20080;-73
2022/12/04 00:20:44;;;;;;;39.05;18.65;;;1.50;99.90;;;;;;5056827;28;20039;-73
2022/12/04 00:23:10;;;;;;;41.70;19.52;;;1.50;99.90;;;;;;5068948;28;20112;-73
2022/12/04 00:25:35;;;;;;;36.67;18.05;;;1.40;99.90;;;;;;5073336;28;20477;-73
2022/12/04 00:28:01;;;;;;;36.92;18.70;;;1.40;99.90;;;;;;5054040;28;20227;-73
2022/12/04 00:30:27;;;;;;;38.67;18.98;;;1.40;99.90;;;;;;5036104;28;20049;-73
2022/12/04 00:32:52;;;;;;;38.45;18.85;;;1.50;99.90;;;;;;5037917;28;20067;-73
2022/12/04 00:35:18;;;;;;;41.40;19.98;;;1.40;99.90;;;;;;5055267;28;20032;-73
2022/12/04 00:37:43;;;;;;;38.25;18.73;;;1.40;99.90;;;;;;5055551;28;20089;-73
2022/12/04 00:40:09;;;;;;;37.85;19.95;;;1.50;99.90;;;;;;5056320;28;20075;-73
2022/12/04 00:42:35;;;;;;;39.45;18.80;;;1.50;99.90;;;;;;5055068;28;20369;-73
2022/12/04 00:45:01;;;;;;;37.85;18.83;;;1.40;99.90;;;;;;5056205;28;20085;-73
2022/12/04 00:47:26;;;;;;;40.90;20.67;;;1.50;99.90;;;;;;5072629;28;20047;-73
2022/12/04 00:49:52;;;;;;;38.35;19.35;;;1.50;99.90;;;;;;5072572;28;20079;-73
2022/12/04 00:52:17;;;;;;;36.50;17.23;;;1.40;99.90;;;;;;5054441;28;20047;-73
2022/12/04 00:54:43;;;;;;;38.83;19.20;;;1.40;99.90;;;;;;5055243;28;20037;-73
2022/12/04 00:57:08;;;;;;;40.33;19.30;;;1.50;99.90;;;;;;5054769;28;20154;-73
2022/12/04 00:59:36;;;;;;;37.38;17.83;;;1.60;99.90;;;;;;5055897;28;20064;-73
2022/12/04 01:02:02;;;;;;;38.42;18.98;;;1.60;99.90;;;;;;5055785;28;20576;-73
2022/12/04 01:04:28;;;;;;;39.95;20.75;;;1.60;99.90;;;;;;5053935;28;20127;-73
2022/12/04 01:06:54;;;;;;;40.30;18.95;;;1.60;99.90;;;;;;5055980;28;20090;-73
2022/12/04 01:09:19;;;;;;;41.20;20.30;;;1.60;99.90;;;;;;5071372;28;20044;-73
2022/12/04 01:11:45;;;;;;;38.90;19.45;;;1.60;99.90;;;;;;5055850;28;20039;-73
2022/12/04 01:14:10;;;;;;;39.30;19.60;;;1.50;99.90;;;;;;5071111;28;20507;-73
2022/12/04 01:16:38;;;;;;;38.97;19.30;;;1.60;99.90;;;;;;5045538;28;20119;-73
2022/12/04 01:19:10;;;;;;;38.03;18.83;;;1.50;99.90;;;;;;5053364;28;20492;-73
2022/12/04 01:21:37;;;;;;;39.25;20.00;;;1.60;99.90;;;;;;5055520;28;20119;-73
2022/12/04 01:24:03;;;;;;;40.38;20.27;;;1.50;99.90;;;;;;5053789;28;20036;-73
2022/12/04 01:26:29;;;;;;;38.83;19.85;;;1.50;99.90;;;;;;5070698;28;20493;-73
2022/12/04 01:28:55;;;;;;;37.65;18.90;;;1.50;99.90;;;;;;5055560;28;20463;-73
2022/12/04 01:31:22;;;;;;;38.25;18.55;;;1.40;99.90;;;;;;5055364;28;20119;-73
2022/12/04 01:33:48;;;;;;;38.40;20.52;;;1.40;99.90;;;;;;5053221;28;20539;-73
2022/12/04 01:36:17;;;;;;;40.83;19.23;;;1.40;99.90;;;;;;5054206;28;20066;-73
2022/12/04 01:38:43;;;;;;;40.60;19.15;;;1.50;99.90;;;;;;5071938;28;20076;-73
2022/12/04 01:41:10;;;;;;;38.85;18.98;;;1.40;99.90;;;;;;5072122;28;20037;-73
2022/12/04 01:43:37;;;;;;;39.75;20.45;;;1.50;99.90;;;;;;5070624;28;20040;-73
2022/12/04 01:46:04;;;;;;;43.95;20.75;;;1.40;99.90;;;;;;5053642;28;20508;-73
2022/12/04 01:48:34;;;;;;;41.45;20.23;;;1.40;99.90;;;;;;5071137;28;20045;-73
2022/12/04 01:51:26;;;;;;;40.45;19.77;;;1.40;99.90;;;;;;5071887;28;20041;-73
2022/12/04 01:53:55;;;;;;;41.47;19.77;;;1.40;99.90;;;;;;5041184;28;20053;-73
2022/12/04 01:56:25;;;;;;;42.13;21.25;;;1.40;99.90;;;;;;5070348;28;20024;-73
2022/12/04 01:58:55;;;;;;;39.30;19.98;;;1.30;99.90;;;;;;5071690;28;20515;-73
2022/12/04 02:01:21;;;;;;;42.30;19.15;;;1.30;99.90;;;;;;5071801;28;20086;-73
2022/12/04 02:03:47;;;;;;;40.67;21.52;;;1.40;99.90;;;;;;5053816;28;20059;-73
2022/12/04 02:06:13;;;;;;;42.03;18.92;;;1.40;99.90;;;;;;5070451;28;20392;-73
2022/12/04 02:08:39;;;;;;;42.80;20.30;;;1.30;99.90;;;;;;5054955;28;20033;-73
2022/12/04 02:11:13;;;;;;;42.75;21.65;;;1.40;99.90;;;;;;5054879;28;20063;-73
2022/12/04 02:13:43;;;;;;;41.28;20.95;;;1.30;99.90;;;;;;5070174;28;20047;-73
2022/12/04 02:16:16;;;;;;;41.50;20.73;;;1.20;99.90;;;;;;5070159;28;20035;-73
2022/12/04 02:19:03;;;;;;;41.10;20.77;;;1.30;99.90;;;;;;5071820;28;20435;-73
2022/12/04 02:21:36;;;;;;;42.08;20.40;;;1.30;99.90;;;;;;5071844;28;20051;-73
2022/12/04 02:24:20;;;;;;;42.40;21.70;;;1.30;99.90;;;;;;5070382;28;20040;-73
2022/12/04 02:27:00;;;;;;;41.90;20.92;;;1.40;99.90;;;;;;5068762;28;20400;-73
2022/12/04 02:29:50;;;;;;;46.65;23.10;;;1.30;99.90;;;;;;5071490;28;20044;-73
2022/12/04 02:32:34;;;;;;;40.47;19.60;;;1.20;99.90;;;;;;5071534;28;20041;-73
2022/12/04 02:35:12;;;;;;;45.25;21.05;;;1.20;99.90;;;;;;5071567;28;20055;-73
2022/12/04 02:37:48;;;;;;;46.67;21.88;;;1.30;99.90;;;;;;5053677;28;20041;-73
2022/12/04 02:40:28;;;;;;;43.17;21.25;;;1.20;99.90;;;;;;5053425;28;20040;-73
2022/12/04 02:43:06;;;;;;;44.92;22.58;;;1.20;99.90;;;;;;5069421;28;20082;-73
2022/12/04 02:45:42;;;;;;;38.45;19.02;;;1.30;99.90;;;;;;5062294;28;20036;-73
2022/12/04 02:48:09;;;;;;;47.67;24.05;;;1.20;99.90;;;;;;5054779;28;20485;-73
2022/12/04 02:50:39;;;;;;;43.25;22.23;;;1.10;99.90;;;;;;5066519;28;20044;-73
2022/12/04 02:53:10;;;;;;;44.20;21.70;;;1.20;99.90;;;;;;5071329;28;20048;-73
2022/12/04 02:55:46;;;;;;;45.50;24.27;;;1.20;99.90;;;;;;5053496;28;20126;-73
2022/12/04 02:58:38;;;;;;;42.67;20.70;;;1.10;99.90;;;;;;5071417;28;20041;-73
2022/12/04 03:01:18;;;;;;;46.13;22.45;;;1.10;99.90;;;;;;5057356;28;20074;-73
2022/12/04 03:03:50;;;;;;;46.40;22.45;;;1.10;99.90;;;;;;5069446;28;20064;-73
2022/12/04 03:06:17;;;;;;;;;;;1.10;99.90;;;;;;5059081;28;20040;-73
2022/12/04 03:08:48;;;;;;;45.50;21.60;;;1.10;99.90;;;;;;5056990;28;20012;-73
2022/12/04 03:11:14;;;;;;;44.67;22.90;;;1.10;99.90;;;;;;5037653;28;20069;-73
2022/12/04 03:14:00;;;;;;;46.58;22.48;;;1.00;99.90;;;;;;5041074;28;20145;-73
2022/12/04 03:16:31;;;;;;;46.60;22.65;;;1.00;99.90;;;;;;5063757;28;20120;-73
2022/12/04 03:19:13;;;;;;;49.40;23.80;;;1.00;99.90;;;;;;5059568;28;20035;-73
2022/12/04 03:21:45;;;;;;;47.33;23.80;;;1.00;99.90;;;;;;5053291;28;20048;-73
2022/12/04 03:24:18;;;;;;;45.42;22.98;;;1.10;99.90;;;;;;5041019;28;20321;-73
2022/12/04 03:26:56;;;;;;;43.70;21.33;;;1.00;99.90;;;;;;5070950;28;20044;-73
2022/12/04 03:29:45;;;;;;;47.22;23.35;;;1.00;99.90;;;;;;5073398;28;20040;-73
2022/12/04 03:32:29;;;;;;;43.97;20.33;;;1.00;99.90;;;;;;5057750;28;20052;-73
2022/12/04 03:35:00;;;;;;;43.83;21.92;;;1.10;99.90;;;;;;5055343;28;20493;-73
2022/12/04 03:37:40;;;;;;;46.88;23.40;;;1.10;99.90;;;;;;5071931;28;20033;-73
2022/12/04 03:40:06;;;;;;;46.78;23.33;;;1.00;99.90;;;;;;5037873;28;20037;-73
2022/12/04 03:42:41;;;;;;;45.10;21.90;;;1.10;99.90;;;;;;5032774;28;20041;-73
2022/12/04 03:45:22;;;;;;;46.65;24.35;;;1.10;99.90;;;;;;5064758;28;20064;-73
2022/12/04 03:47:55;;;;;;;48.80;23.95;;;1.20;99.90;;;;;;5054870;28;20040;-73
2022/12/04 03:50:31;;;;;;;44.90;22.67;;;1.10;99.90;;;;;;5048315;28;20040;-73
2022/12/04 03:53:31;;;;;;;43.70;23.40;;;1.10;99.90;;;;;;5044314;28;20041;-73
2022/12/04 03:56:12;;;;;;;42.35;23.92;;;1.10;99.90;;;;;;5032524;28;20033;-73
2022/12/04 03:58:43;;;;;;;43.30;21.55;;;1.00;99.90;;;;;;5049297;28;20545;-73
2022/12/04 04:01:10;;;;;;;44.20;22.27;;;1.00;99.90;;;;;;5072292;28;20029;-73
2022/12/04 04:03:42;;;;;;;43.25;21.98;;;0.90;99.90;;;;;;5055774;28;20052;-73
2022/12/04 04:06:10;;;;;;;;;;;1.00;99.90;;;;;;5072943;28;20044;-73
2022/12/04 04:08:40;;;;;;;46.08;22.40;;;1.10;99.90;;;;;;5060984;28;19994;-73
2022/12/04 04:11:22;;;;;;;45.15;21.92;;;1.10;99.90;;;;;;5052971;28;20032;-73
2022/12/04 04:25:12;;;;;;;44.53;22.95;;;0.90;99.90;;;;;;5049812;28;20053;-73
2022/12/04 04:27:37;;;;;;;49.85;24.90;;;0.80;99.90;;;;;;5036616;28;20082;-73
2022/12/04 04:30:04;;;;;;;43.42;22.20;;;0.90;99.90;;;;;;5052979;28;20041;-73
2022/12/04 04:33:05;;;;;;;48.28;24.50;;;0.90;99.90;;;;;;5052501;28;20417;-73
2022/12/04 04:35:52;;;;;;;44.53;22.13;;;0.90;99.90;;;;;;5008027;28;20132;-73
2022/12/04 04:38:29;;;;;;;46.58;23.15;;;0.90;99.90;;;;;;5036454;28;20090;-73
2022/12/04 04:41:03;;;;;;;44.40;23.02;;;1.00;99.90;;;;;;5052923;28;20044;-73
2022/12/04 04:43:38;;;;;;;47.30;24.45;;;1.00;99.90;;;;;;5052919;28;20041;-73
2022/12/04 04:46:10;;;;;;;45.28;22.52;;;0.90;99.90;;;;;;5053052;28;20072;-72
2022/12/04 04:48:40;;;;;;;42.60;22.73;;;1.10;99.90;;;;;;5052795;28;20134;-73
2022/12/04 04:51:06;;;;;;;40.88;20.98;;;1.10;99.90;;;;;;5036111;28;20041;-72
2022/12/04 04:53:41;;;;;;;42.58;23.10;;;1.00;99.90;;;;;;5036602;28;20069;-73
2022/12/04 04:56:07;;;;;;;48.10;23.60;;;1.00;99.90;;;;;;5045426;28;20409;-73
2022/12/04 04:58:33;;;;;;;47.38;23.85;;;0.90;99.90;;;;;;5036157;28;20115;-73
2022/12/04 05:01:02;;;;;;;45.63;24.17;;;0.90;99.90;;;;;;5052436;28;20125;-73
2022/12/04 05:03:29;;;;;;;44.50;24.05;;;1.00;99.90;;;;;;5052446;28;20413;-73
2022/12/04 05:05:54;;;;;;;42.50;22.38;;;1.00;99.90;;;;;;5052470;28;20037;-73
2022/12/04 05:08:20;;;;;;;42.50;23.23;;;1.00;99.90;;;;;;5052479;28;20040;-73
2022/12/04 05:10:46;;;;;;;44.92;24.83;;;1.00;99.90;;;;;;5035655;28;20047;-73
2022/12/04 05:13:12;;;;;;;46.25;23.33;;;1.00;99.90;;;;;;5035572;28;20045;-73
2022/12/04 05:15:38;;;;;;;46.03;24.65;;;0.90;99.90;;;;;;5052325;28;20044;-73
2022/12/04 05:18:04;;;;;;;45.67;25.40;;;0.90;99.90;;;;;;5052472;28;20409;-73
2022/12/04 05:20:30;;;;;;;46.50;24.35;;;0.80;99.90;;;;;;5052027;28;20051;-73
2022/12/04 05:22:55;;;;;;;47.72;24.02;;;0.80;99.90;;;;;;5035707;28;20067;-73
2022/12/04 05:25:21;;;;;;;43.95;22.92;;;0.90;99.90;;;;;;5052042;28;20128;-73
2022/12/04 05:27:47;;;;;;;44.15;22.70;;;0.80;99.90;;;;;;5035479;28;20037;-73
2022/12/04 05:30:12;;;;;;;50.47;24.65;;;0.90;99.90;;;;;;5051784;28;20413;-73
2022/12/04 05:32:38;;;;;;;51.78;30.42;;;1.00;99.90;;;;;;5051986;28;20124;-73
2022/12/04 05:35:04;;;;;;;45.63;22.75;;;0.90;99.90;;;;;;5052349;28;20044;-73
2022/12/04 05:37:29;;;;;;;45.67;24.25;;;0.90;99.90;;;;;;5052363;28;20503;-72
2022/12/04 05:39:55;;;;;;;42.00;23.40;;;0.90;99.90;;;;;;5051978;28;20072;-73
2022/12/04 05:42:21;;;;;;;43.90;23.60;;;1.00;99.90;;;;;;5061322;28;20072;-73
2022/12/04 05:44:47;;;;;;;43.38;22.25;;;1.00;99.90;;;;;;5059017;28;20053;-73
2022/12/04 05:47:13;;;;;;;45.17;24.30;;;1.00;99.90;;;;;;5045376;28;20044;-73
2022/12/04 05:49:39;;;;;;;46.30;23.55;;;0.90;99.90;;;;;;5061357;28;20067;-73
2022/12/04 05:52:05;;;;;;;43.10;23.20;;;0.90;99.90;;;;;;5053600;28;20397;-73
2022/12/04 05:54:30;;;;;;;48.03;24.88;;;0.90;99.90;;;;;;5054236;28;20373;-73
2022/12/04 05:56:56;;;;;;;45.92;22.80;;;0.90;99.90;;;;;;5043523;28;20040;-73
2022/12/04 05:59:22;;;;;;;46.22;23.88;;;0.90;99.90;;;;;;5051631;28;20555;-73
2022/12/04 06:01:47;;;;;;;46.30;23.42;;;0.90;99.90;;;;;;5034911;28;20044;-72
2022/12/04 06:04:13;;;;;;;45.92;25.05;;;1.00;99.90;;;;;;5051531;28;20049;-73
2022/12/04 06:06:38;;;;;;;45.05;24.02;;;0.90;99.90;;;;;;5051685;28;20041;-73
2022/12/04 06:09:06;;;;;;;43.55;23.38;;;0.80;99.90;;;;;;5035364;28;20041;-72
2022/12/04 06:11:35;;;;;;;44.35;24.65;;;1.00;99.90;;;;;;5051697;28;20045;-73
2022/12/04 06:14:03;;;;;;;42.92;22.63;;;1.00;99.90;;;;;;5051777;28;20075;-73
2022/12/04 06:16:32;;;;;;;46.65;22.25;;;0.90;99.90;;;;;;5035032;28;20481;-73
2022/12/04 06:19:01;;;;;;;40.15;20.60;;;0.90;99.90;;;;;;5063066;28;20028;-73
2022/12/04 06:21:29;;;;;;;45.40;23.15;;;0.90;99.90;;;;;;5040133;28;20508;-73
2022/12/04 06:23:55;;;;;;;44.80;22.98;;;1.00;99.90;;;;;;5054827;28;20075;-72
2022/12/04 06:26:21;;;;;;;43.20;22.60;;;1.00;99.90;;;;;;5052972;28;20032;-73
2022/12/04 06:28:46;;;;;;;43.63;22.00;;;1.00;99.90;;;;;;5054830;28;20041;-73
2022/12/04 06:31:14;;;;;;;45.90;23.10;;;1.00;99.90;;;;;;5069751;28;20093;-73
2022/12/04 06:33:41;;;;;;;49.20;24.95;;;0.90;99.90;;;;;;5054756;28;20141;-72
2022/12/04 06:36:16;;;;;;;46.58;23.13;;;0.90;99.90;;;;;;5070986;28;20078;-73
2022/12/04 06:38:42;;;;;;;42.40;21.30;;;0.90;99.90;;;;;;5074224;28;20036;-73
2022/12/04 06:41:10;;;;;;;41.78;22.83;;;0.90;99.90;;;;;;5057355;28;20044;-73
2022/12/04 06:43:36;;;;;;;42.30;22.02;;;0.90;99.90;;;;;;5071399;28;20075;-73
2022/12/04 06:46:09;;;;;;;42.28;21.63;;;1.00;99.90;;;;;;5046419;28;20184;-73
2022/12/04 06:48:35;;;;;;;42.08;22.10;;;1.00;99.90;;;;;;5046433;28;20044;-73
2022/12/04 06:51:03;;;;;;;44.38;22.98;;;1.10;99.90;;;;;;5053104;28;20048;-72
2022/12/04 06:53:29;;;;;;;43.53;21.98;;;1.10;99.90;;;;;;5048505;28;20110;-73
2022/12/04 06:56:01;;;;;;;47.40;23.33;;;1.10;99.90;;;;;;5036212;28;20034;-73
2022/12/04 06:58:28;;;;;;;47.28;24.63;;;1.10;99.90;;;;;;5062451;28;20064;-72
2022/12/04 07:00:55;;;;;;;43.70;23.42;;;1.00;99.90;;;;;;5043422;28;20041;-73
2022/12/04 07:03:21;;;;;;;47.97;21.67;;;1.00;99.90;;;;;;5046324;28;20052;-73
2022/12/04 07:05:47;;;;;;;47.72;24.23;;;0.90;99.90;;;;;;5054323;28;20501;-73
2022/12/04 07:08:14;;;;;;;47.13;21.83;;;0.90;99.90;;;;;;5065331;28;20048;-73
2022/12/04 07:10:40;;;;;;;42.70;22.05;;;0.90;99.90;;;;;;5056544;28;20110;-73
2022/12/04 07:13:06;;;;;;;45.90;23.00;;;0.90;99.90;;;;;;5071933;28;20128;-72
2022/12/04 07:15:33;;;;;;;45.08;22.65;;;1.00;99.90;;;;;;5033722;28;20145;-73
2022/12/04 07:17:59;;;;;;;46.97;22.40;;;1.10;99.90;;;;;;5029923;28;20467;-72
2022/12/04 07:20:25;;;;;;;45.45;23.05;;;1.00;99.90;;;;;;5036997;28;20075;-73
2022/12/04 07:22:50;;;;;;;47.03;23.60;;;1.00;99.90;;;;;;5057122;28;20040;-73
2022/12/04 07:25:16;;;;;;;47.67;24.02;;;0.90;99.90;;;;;;5054900;28;20164;-72
2022/12/04 07:27:42;;;;;;;46.58;23.02;;;0.90;99.90;;;;;;5048390;28;20047;-73
2022/12/04 07:30:09;;;;;;;46.35;22.77;;;0.90;99.90;;;;;;5037129;28;20405;-73
2022/12/04 07:32:35;;;;;;;48.80;23.17;;;0.80;99.90;;;;;;5067217;28;20124;-73
2022/12/04 07:35:00;;;;;;;45.13;24.55;;;1.00;99.90;;;;;;5069175;28;20144;-73
2022/12/04 07:37:26;;;;;;;48.45;23.83;;;1.00;99.90;;;;;;5069728;28;20402;-73
2022/12/04 07:39:52;;;;;;;50.17;24.35;;;0.90;99.90;;;;;;5052694;28;20505;-73
2022/12/04 07:42:18;;;;;;;45.63;22.35;;;0.90;99.90;;;;;;5053811;28;20118;-73
2022/12/04 07:44:44;;;;;;;46.35;24.67;;;0.90;99.90;;;;;;5065525;28;20056;-73
2022/12/04 07:47:10;;;;;;;45.47;21.95;;;0.90;99.90;;;;;;5050119;28;20045;-73
2022/12/04 07:49:35;;;;;;;47.63;25.60;;;0.90;99.90;;;;;;5070552;28;20522;-73
2022/12/04 07:52:01;;;;;;;47.20;22.92;;;1.00;99.90;;;;;;5053280;28;20120;-72
2022/12/04 07:54:26;;;;;;;43.60;23.00;;;0.90;99.90;;;;;;5057750;28;20025;-72
2022/12/04 07:56:52;;;;;;;44.28;22.52;;;0.90;99.90;;;;;;5052255;28;20501;-72
2022/12/04 07:59:17;;;;;;;45.10;22.75;;;0.90;99.90;;;;;;5052681;28;20025;-72
2022/12/04 08:01:43;;;;;;;43.40;20.65;;;0.90;99.90;;;;;;5071858;28;20488;-74
2022/12/04 08:04:10;;;;;;;49.90;24.17;;;0.90;99.90;;;;;;5048339;28;20166;-75
2022/12/04 08:06:36;;;;;;;46.35;22.38;;;1.00;99.90;;;;;;5050982;28;20528;-73
2022/12/04 08:09:05;;;;;;;43.90;22.23;;;0.90;99.90;;;;;;5056727;28;20040;-72
2022/12/04 08:11:32;;;;;;;45.65;22.27;;;1.00;99.90;;;;;;5051267;28;20041;-72
2022/12/04 08:13:59;;;;;;;47.60;24.15;;;0.90;99.90;;;;;;5060592;28;20086;-71
2022/12/04 08:16:26;;;;;;;41.85;21.55;;;0.90;99.90;;;;;;5072964;28;20047;-73
2022/12/04 08:18:52;;;;;;;44.00;22.00;;;0.90;99.90;;;;;;5073287;28;20042;-72
2022/12/04 08:21:21;;;;;;;40.67;20.15;;;1.00;99.90;;;;;;5073156;28;20052;-72
2022/12/04 08:23:48;;;;;;;46.28;23.48;;;1.10;99.90;;;;;;5052253;28;20039;-73
2022/12/04 08:26:14;;;;;;;43.38;22.20;;;1.00;99.90;;;;;;5056396;28;20080;-73
2022/12/04 08:28:40;;;;;;;43.75;23.30;;;1.00;99.90;;;;;;5064354;28;20508;-72
2022/12/04 08:31:12;;;;;;;46.42;24.98;;;1.00;99.90;;;;;;5052725;28;20033;-72
2022/12/04 08:33:38;;;;;;;46.67;22.48;;;1.00;99.90;;;;;;5040917;28;20051;-71
2022/12/04 08:36:09;;;;;;;39.90;21.33;;;1.00;99.90;;;;;;5055972;28;20040;-72
2022/12/04 08:38:34;;;;;;;39.05;19.05;;;1.10;99.90;;;;;;5072546;28;20119;-74
2022/12/04 08:41:05;;;;;;;43.80;22.40;;;1.10;99.90;;;;;;5046083;28;20446;-74
2022/12/04 08:43:31;;;;;;;35.95;18.23;;;1.20;99.90;;;;;;5059784;28;20044;-73
2022/12/04 08:46:05;;;;;;;42.88;22.15;;;1.20;99.90;;;;;;5041460;28;20110;-74
2022/12/04 08:48:31;;;;;;;38.08;20.10;;;1.10;99.90;;;;;;5046476;28;20052;-74
2022/12/04 08:50:58;;;;;;;87.38;70.93;;;1.10;99.90;;;;;;5041966;28;20132;-74
2022/12/04 08:53:24;;;;;;;42.25;22.13;;;1.20;99.90;;;;;;5051853;28;20041;-74
2022/12/04 08:55:50;;;;;;;43.97;21.75;;;1.10;99.90;;;;;;5068920;28;20043;-74
2022/12/04 08:58:16;;;;;;;48.28;27.30;;;1.10;99.90;;;;;;5066710;28;20041;-74
2022/12/04 09:00:42;;;;;;;41.65;22.08;;;1.20;99.90;;;;;;5054743;28;20059;-74
2022/12/04 09:03:12;;;;;;;46.47;23.15;;;1.20;99.90;;;;;;5067323;28;20130;-74
2022/12/04 09:05:38;;;;;;;44.13;20.50;;;1.20;99.90;;;;;;5067148;28;20047;-73
2022/12/04 09:08:03;;;;;;;42.35;22.88;;;1.20;99.90;;;;;;5070302;28;20029;-74
2022/12/04 09:10:29;;;;;;;40.63;21.55;;;1.30;99.90;;;;;;5068836;28;20040;-73
2022/12/04 09:12:54;;;;;;;37.97;20.50;;;1.20;99.90;;;;;;5069815;28;20127;-74
2022/12/04 09:15:20;;;;;;;40.58;21.10;;;1.30;99.90;;;;;;5050192;28;20408;-74
2022/12/04 09:17:46;;;;;;;39.95;20.25;;;1.30;99.90;;;;;;5053720;28;20048;-74
2022/12/04 09:20:13;;;;;;;39.30;22.38;;;1.30;99.90;;;;;;5041607;28;20036;-73
2022/12/04 09:22:39;;;;;;;41.38;22.00;;;1.30;99.90;;;;;;5047602;28;20412;-74
2022/12/04 09:25:05;;;;;;;39.40;22.20;;;1.30;99.90;;;;;;5053759;28;20066;-73
2022/12/04 09:27:36;;;;;;;37.53;20.20;;;1.30;99.90;;;;;;5049866;28;20044;-73
2022/12/04 09:30:03;;;;;;;44.17;22.20;;;1.40;99.90;;;;;;5046078;28;20044;-74
2022/12/04 09:32:28;;;;;;;40.80;20.88;;;1.40;99.90;;;;;;5040165;28;20207;-74
2022/12/04 09:34:54;;;;;;;40.75;20.80;;;1.40;99.90;;;;;;5034225;28;20120;-74
2022/12/04 09:37:19;;;;;;;38.20;20.27;;;1.40;99.90;;;;;;5065704;28;20550;-74
2022/12/04 09:39:45;;;;;;;40.78;21.70;;;1.40;99.90;;;;;;5069634;28;20542;-73
2022/12/04 09:42:26;;;;;;;37.75;20.50;;;1.50;99.90;;;;;;5060777;28;20142;-71
2022/12/04 09:45:01;;;;;;;38.10;21.17;;;1.50;99.90;;;;;;5069791;28;20382;-72
2022/12/04 09:47:43;;;;;;;38.55;20.95;;;1.50;99.90;;;;;;5049818;28;20040;-72
2022/12/04 09:50:34;;;;;;;39.72;22.17;;;1.50;99.90;;;;;;5024141;28;20086;-72
2022/12/04 09:53:17;;;;;;;40.00;21.42;;;1.60;99.90;;;;;;5066783;28;20142;-72
2022/12/04 09:56:00;;;;;;;39.72;20.48;;;1.50;99.90;;;;;;5044513;28;20067;-72
2022/12/04 09:58:54;;;;;;;37.75;19.77;;;1.50;99.90;;;;;;5052824;28;20487;-72
2022/12/04 10:01:22;;;;;;;37.65;20.25;;;1.60;99.90;;;;;;5051809;28;20440;-72
2022/12/04 10:03:48;;;;;;;37.40;20.25;;;1.60;99.90;;;;;;5013404;28;1044584;-72
2022/12/04 10:06:17;;;;;;;35.92;19.00;;;1.70;99.90;;;;;;5054191;28;20433;-72
2022/12/04 10:08:54;;;;;;;38.47;22.20;;;1.70;99.90;;;;;;5053320;28;20036;-72
2022/12/04 10:11:32;;;;;;;37.95;19.88;;;1.80;99.90;;;;;;5055603;28;20518;-72
2022/12/04 10:14:09;;;;;;;33.88;17.60;;;1.80;99.90;;;;;;5038248;28;20133;-72
2022/12/04 10:16:43;;;;;;;36.72;20.83;;;1.80;99.90;;;;;;5038550;28;20037;-72
2022/12/04 10:19:15;;;;;;;35.63;18.65;;;1.80;99.90;;;;;;5055579;28;20267;-72
2022/12/04 10:21:58;;;;;;;31.83;17.35;;;1.80;99.90;;;;;;5055928;28;20095;-72
2022/12/04 10:24:30;;;;;;;35.05;20.33;;;1.90;99.90;;;;;;5038361;28;20083;-72
2022/12/04 10:27:00;;;;;;;31.27;18.73;;;1.90;99.90;;;;;;5038736;28;20037;-72
2022/12/04 10:29:32;;;;;;;38.13;18.35;;;2.00;99.90;;;;;;5054713;28;20036;-72
2022/12/04 10:32:12;;;;;;;34.88;19.38;;;2.00;99.90;;;;;;5054989;28;20037;-72
2022/12/04 10:34:38;;;;;;;33.30;18.60;;;2.00;99.90;;;;;;5054976;28;20067;-72
2022/12/04 10:37:11;;;;;;;30.75;17.58;;;2.10;99.90;;;;;;5054825;28;20044;-72
2022/12/04 10:39:49;;;;;;;30.95;16.65;;;2.10;99.90;;;;;;5056752;28;20123;-72
2022/12/04 10:42:35;;;;;;;34.65;18.25;;;2.20;99.90;;;;;;5052840;28;20052;-72
2022/12/04 10:45:04;;;;;;;29.10;15.43;;;2.20;99.90;;;;;;5054673;28;20458;-72
2022/12/04 10:47:30;;;;;;;29.42;16.63;;;2.20;99.90;;;;;;5054587;28;20076;-72
2022/12/04 10:50:01;;;;;;;31.42;16.83;;;2.20;99.90;;;;;;5054968;28;20049;-72
2022/12/04 10:52:26;;;;;;;27.15;15.48;;;2.20;99.90;;;;;;5070074;28;20443;-71
2022/12/04 10:54:59;;;;;;;24.40;12.95;;;2.30;99.90;;;;;;5034416;28;20037;-72
2022/12/04 10:57:37;;;;;;;29.13;15.90;;;2.40;99.90;;;;;;5052742;28;20040;-72
2022/12/04 11:00:21;;;;;;;26.73;14.82;;;2.40;99.90;;;;;;5032082;28;20025;-72
2022/12/04 11:02:47;;;;;;;28.95;15.88;;;2.40;99.90;;;;;;5048993;28;20045;-72
2022/12/04 11:05:32;;;;;;;27.00;13.65;;;2.30;99.90;;;;;;5054283;28;20053;-72
2022/12/04 11:07:59;;;;;;;26.70;14.95;;;2.40;99.90;;;;;;5054489;28;20086;-72
2022/12/04 11:10:40;;;;;;;27.90;14.57;;;2.40;99.90;;;;;;5037050;28;20041;-72
2022/12/04 11:13:16;;;;;;;28.65;15.60;;;2.40;99.90;;;;;;5049673;28;20519;-72
2022/12/04 11:15:54;;;;;;;27.13;14.43;;;2.30;99.90;;;;;;5073880;28;20037;-72
2022/12/04 11:18:24;;;;;;;30.95;15.57;;;2.40;99.90;;;;;;5069775;28;20448;-72
2022/12/04 11:20:57;;;;;;;28.02;15.27;;;2.30;99.90;;;;;;5063276;28;20488;-72
2022/12/04 11:23:24;;;;;;;30.55;15.15;;;2.40;99.90;;;;;;5065288;28;20040;-72
2022/12/04 11:25:53;;;;;;;27.75;14.98;;;2.40;99.90;;;;;;5072928;28;20094;-72
2022/12/04 11:28:24;;;;;;;30.27;15.85;;;2.30;99.90;;;;;;5050711;28;20098;-72
2022/12/04 11:30:53;;;;;;;28.85;14.65;;;2.30;99.90;;;;;;5056434;28;20102;-72
2022/12/04 11:33:45;;;;;;;29.00;15.18;;;2.30;99.90;;;;;;5072633;28;20075;-72
2022/12/04 11:36:41;;;;;;;30.27;16.77;;;2.30;99.90;;;;;;5067486;28;20082;-72
2022/12/04 11:39:10;;;;;;;28.70;14.40;;;2.30;99.90;;;;;;5039163;28;20089;-72
2022/12/04 11:41:35;;;;;;;25.98;14.68;;;2.30;99.90;;;;;;5057625;28;20037;-72
2022/12/04 11:44:04;;;;;;;28.83;14.07;;;2.30;99.90;;;;;;5072744;28;20404;-72
2022/12/04 11:46:31;;;;;;;29.40;16.20;;;2.40;99.90;;;;;;5039941;28;20465;-72
2022/12/04 11:48:57;;;;;;;27.95;15.57;;;2.30;99.90;;;;;;5052702;28;20043;-72
2022/12/04 11:51:37;;;;;;;24.48;13.57;;;2.30;99.90;;;;;;5056134;28;20399;-72
2022/12/04 11:54:27;;;;;;;30.23;16.10;;;2.30;99.90;;;;;;5050963;28;20500;-72
2022/12/04 11:57:21;;;;;;;30.02;15.82;;;2.40;99.90;;;;;;5052676;28;20047;-72
2022/12/04 12:00:13;;;;;;;28.17;14.90;;;2.40;99.90;;;;;;5055682;28;20048;-72
2022/12/04 12:02:58;;;;;;;27.70;14.60;;;2.40;99.90;;;;;;5039040;28;20037;-72
2022/12/04 12:05:59;;;;;;;28.27;15.13;;;2.40;99.90;;;;;;5056499;28;20178;-73
2022/12/04 12:08:28;;;;;;;24.55;13.23;;;2.50;99.90;;;;;;5039582;28;20475;-73
2022/12/04 12:11:06;;;;;;;26.48;14.15;;;2.50;99.90;;;;;;5049656;28;20033;-72
2022/12/04 12:13:50;;;;;;;25.23;13.93;;;2.40;99.90;;;;;;5053872;28;20036;-73
2022/12/04 12:16:34;;;;;;;27.55;15.90;;;2.50;99.90;;;;;;5033256;28;20497;-73
2022/12/04 12:19:10;;;;;;;26.52;13.73;;;2.50;99.90;;;;;;5033396;28;20449;-72
2022/12/04 12:22:00;;;;;;;26.33;14.68;;;2.40;99.90;;;;;;5030042;28;20075;-72
2022/12/04 12:24:30;;;;;;;26.80;15.75;;;2.40;99.90;;;;;;5053708;28;20040;-72
2022/12/04 12:27:18;;;;;;;21.23;11.98;;;2.40;99.90;;;;;;5054081;28;20037;-73
2022/12/04 12:29:56;;;;;;;26.20;13.88;;;2.50;99.90;;;;;;5053599;28;20041;-72
2022/12/04 12:32:38;;;;;;;24.73;13.43;;;2.50;99.90;;;;;;5046919;28;20041;-73
2022/12/04 12:35:16;;;;;;;28.05;15.38;;;2.50;99.90;;;;;;5068040;28;20036;-72
2022/12/04 12:38:01;;;;;;;23.38;13.75;;;2.50;99.90;;;;;;5044939;28;20036;-72
2022/12/04 12:40:32;;;;;;;23.27;12.98;;;2.50;99.90;;;;;;5066002;28;20048;-72
2022/12/04 12:43:31;;;;;;;24.87;13.00;;;2.60;99.90;;;;;;5049136;28;20036;-72
2022/12/04 12:46:13;;;;;;;24.55;12.90;;;2.60;99.90;;;;;;5064675;28;20049;-72
2022/12/04 12:49:10;;;;;;;24.33;13.07;;;2.60;99.90;;;;;;5045732;28;20044;-72
2022/12/04 12:51:38;;;;;;;23.48;11.95;;;2.70;99.90;;;;;;5038503;28;20037;-72
2022/12/04 12:54:29;;;;;;;25.45;13.52;;;2.70;99.90;;;;;;5054427;28;20037;-72
2022/12/04 12:57:20;;;;;;;25.90;14.90;;;2.70;99.90;;;;;;5038810;28;20065;-72
2022/12/04 12:59:59;;;;;;;23.10;12.00;;;2.80;99.90;;;;;;5048259;28;20095;-72
2022/12/04 13:02:39;;;;;;;26.70;15.25;;;2.70;99.90;;;;;;5035302;28;20127;-72
2022/12/04 13:05:09;;;;;;;25.38;13.90;;;2.70;99.90;;;;;;5052201;28;20056;-73
2022/12/04 13:07:59;;;;;;;26.20;13.80;;;2.70;99.90;;;;;;5038899;28;20043;-73
2022/12/04 13:10:32;;;;;;;27.45;15.38;;;2.60;99.90;;;;;;5071062;28;20071;-73